sensor_id;sensor_type;location;lat;lon;timestamp;temperature;humidity
61910;DHT22;47865;52.086;5.410;2022-10-31T00:00:47;11.50;99.90
61910;DHT22;47865;52.086;5.410;2022-10-31T00:03:15;11.50;99.90
61910;DHT22;47865;52.086;5.410;2022-10-31T00:05:49;11.60;99.90
61910;DHT22;47865;52.086;5.410;2022-10-31T00:08:17;11.60;99.90
61910;DHT22;47865;52.086;5.410;2022-10-31T00:10:44;11.60;99.90
61910;DHT22;47865;52.086;5.410;2022-10-31T00:13:13;11.60;99.90
61910;DHT22;47865;52.086;5.410;2022-10-31T00:15:40;11.60;99.90
61910;DHT22;47865;52.086;5.410;2022-10-31T00:18:08;11.50;99.90
61910;DHT22;47865;52.086;5.410;2022-10-31T00:20:36;11.60;99.90
61910;DHT22;47865;52.086;5.410;2022-10-31T00:23:03;11.70;99.90
61910;DHT22;47865;52.086;5.410;2022-10-31T00:25:35;11.60;99.90
61910;DHT22;47865;52.086;5.410;2022-10-31T00:28:03;11.70;99.90
61910;DHT22;47865;52.086;5.410;2022-10-31T00:30:30;11.70;99.90
61910;DHT22;47865;52.086;5.410;2022-10-31T00:32:57;11.70;99.90
61910;DHT22;47865;52.086;5.410;2022-10-31T00:35:24;11.60;99.90
61910;DHT22;47865;52.086;5.410;2022-10-31T00:37:52;11.50;99.90
61910;DHT22;47865;52.086;5.410;2022-10-31T00:40:19;11.50;99.90
61910;DHT22;47865;52.086;5.410;2022-10-31T00:42:45;11.60;99.90
61910;DHT22;47865;52.086;5.410;2022-10-31T00:45:12;11.60;99.90
61910;DHT22;47865;52.086;5.410;2022-10-31T00:47:39;11.60;99.90
61910;DHT22;47865;52.086;5.410;2022-10-31T00:50:06;11.60;99.90
61910;DHT22;47865;52.086;5.410;2022-10-31T00:52:33;11.60;99.90
61910;DHT22;47865;52.086;5.410;2022-10-31T00:55:01;11.60;99.90
61910;DHT22;47865;52.086;5.410;2022-10-31T00:57:28;11.60;99.90
61910;DHT22;47865;52.086;5.410;2022-10-31T00:59:54;11.60;99.90
61910;DHT22;47865;52.086;5.410;2022-10-31T01:02:21;11.60;99.90
61910;DHT22;47865;52.086;5.410;2022-10-31T01:04:48;11.60;99.90
61910;DHT22;47865;52.086;5.410;2022-10-31T01:07:15;11.50;99.90
61910;DHT22;47865;52.086;5.410;2022-10-31T01:09:43;11.60;99.90
61910;DHT22;47865;52.086;5.410;2022-10-31T01:12:10;11.50;99.90
61910;DHT22;47865;52.086;5.410;2022-10-31T01:14:43;11.50;99.90
61910;DHT22;47865;52.086;5.410;2022-10-31T01:17:10;11.40;99.90
61910;DHT22;47865;52.086;5.410;2022-10-31T01:19:37;11.40;99.90
61910;DHT22;47865;52.086;5.410;2022-10-31T01:22:04;11.40;99.90
61910;DHT22;47865;52.086;5.410;2022-10-31T01:24:31;11.30;99.90
61910;DHT22;47865;52.086;5.410;2022-10-31T01:27:01;11.30;99.90
61910;DHT22;47865;52.086;5.410;2022-10-31T01:29:31;11.30;99.90
61910;DHT22;47865;52.086;5.410;2022-10-31T01:31:58;11.30;99.90
61910;DHT22;47865;52.086;5.410;2022-10-31T01:34:25;11.30;99.90
61910;DHT22;47865;52.086;5.410;2022-10-31T01:36:52;11.30;99.90
61910;DHT22;47865;52.086;5.410;2022-10-31T01:39:19;11.30;99.90
61910;DHT22;47865;52.086;5.410;2022-10-31T01:41:53;11.20;99.90
61910;DHT22;47865;52.086;5.410;2022-10-31T01:46:56;11.00;99.90
61910;DHT22;47865;52.086;5.410;2022-10-31T01:49:37;11.00;99.90
61910;DHT22;47865;52.086;5.410;2022-10-31T01:54:41;10.90;99.90
61910;DHT22;47865;52.086;5.410;2022-10-31T01:57:10;10.80;99.90
61910;DHT22;47865;52.086;5.410;2022-10-31T01:59:43;10.80;99.90
61910;DHT22;47865;52.086;5.410;2022-10-31T02:02:11;10.80;99.90
61910;DHT22;47865;52.086;5.410;2022-10-31T02:04:40;10.70;99.90
61910;DHT22;47865;52.086;5.410;2022-10-31T02:07:12;10.80;99.90
61910;DHT22;47865;52.086;5.410;2022-10-31T02:09:40;10.60;99.90
61910;DHT22;47865;52.086;5.410;2022-10-31T02:12:10;10.50;99.90
61910;DHT22;47865;52.086;5.410;2022-10-31T02:14:39;10.50;99.90
61910;DHT22;47865;52.086;5.410;2022-10-31T02:17:06;10.50;99.90
61910;DHT22;47865;52.086;5.410;2022-10-31T02:20:05;10.40;99.90
61910;DHT22;47865;52.086;5.410;2022-10-31T02:22:53;10.50;99.90
61910;DHT22;47865;52.086;5.410;2022-10-31T02:33:57;10.10;99.90
61910;DHT22;47865;52.086;5.410;2022-10-31T02:36:30;10.20;99.90
61910;DHT22;47865;52.086;5.410;2022-10-31T02:39:13;10.20;99.90
61910;DHT22;47865;52.086;5.410;2022-10-31T02:44:42;10.20;99.90
61910;DHT22;47865;52.086;5.410;2022-10-31T02:47:15;10.20;99.90
61910;DHT22;47865;52.086;5.410;2022-10-31T02:50:00;10.10;99.90
61910;DHT22;47865;52.086;5.410;2022-10-31T02:52:31;10.10;99.90
61910;DHT22;47865;52.086;5.410;2022-10-31T02:58:08;10.00;99.90
61910;DHT22;47865;52.086;5.410;2022-10-31T03:03:22;9.90;99.90
61910;DHT22;47865;52.086;5.410;2022-10-31T03:08:37;9.90;99.90
61910;DHT22;47865;52.086;5.410;2022-10-31T03:11:08;9.90;99.90
61910;DHT22;47865;52.086;5.410;2022-10-31T03:13:59;9.80;99.90
61910;DHT22;47865;52.086;5.410;2022-10-31T03:16:48;9.80;99.90
61910;DHT22;47865;52.086;5.410;2022-10-31T03:19:26;9.80;99.90
61910;DHT22;47865;52.086;5.410;2022-10-31T03:22:06;9.80;99.90
61910;DHT22;47865;52.086;5.410;2022-10-31T03:24:37;9.70;99.90
61910;DHT22;47865;52.086;5.410;2022-10-31T03:27:07;9.70;99.90
61910;DHT22;47865;52.086;5.410;2022-10-31T03:29:37;9.70;99.90
61910;DHT22;47865;52.086;5.410;2022-10-31T03:32:08;9.70;99.90
61910;DHT22;47865;52.086;5.410;2022-10-31T03:34:38;9.70;99.90
61910;DHT22;47865;52.086;5.410;2022-10-31T03:37:09;9.60;99.90
61910;DHT22;47865;52.086;5.410;2022-10-31T03:39:38;9.50;99.90
61910;DHT22;47865;52.086;5.410;2022-10-31T03:42:15;9.50;99.90
61910;DHT22;47865;52.086;5.410;2022-10-31T03:44:46;9.50;99.90
61910;DHT22;47865;52.086;5.410;2022-10-31T03:47:15;9.50;99.90
61910;DHT22;47865;52.086;5.410;2022-10-31T03:49:42;9.60;99.90
61910;DHT22;47865;52.086;5.410;2022-10-31T03:54:59;9.50;99.90
61910;DHT22;47865;52.086;5.410;2022-10-31T03:57:51;9.50;99.90
61910;DHT22;47865;52.086;5.410;2022-10-31T04:00:19;9.50;99.90
61910;DHT22;47865;52.086;5.410;2022-10-31T04:03:07;9.40;99.90
61910;DHT22;47865;52.086;5.410;2022-10-31T04:05:38;9.30;99.90
61910;DHT22;47865;52.086;5.410;2022-10-31T04:08:09;9.30;99.90
61910;DHT22;47865;52.086;5.410;2022-10-31T04:10:38;9.20;99.90
61910;DHT22;47865;52.086;5.410;2022-10-31T04:13:11;9.30;99.90
61910;DHT22;47865;52.086;5.410;2022-10-31T04:15:45;9.30;99.90
61910;DHT22;47865;52.086;5.410;2022-10-31T04:18:12;9.30;99.90
61910;DHT22;47865;52.086;5.410;2022-10-31T04:20:41;9.20;99.90
61910;DHT22;47865;52.086;5.410;2022-10-31T04:23:25;9.20;99.90
61910;DHT22;47865;52.086;5.410;2022-10-31T04:25:53;9.20;99.90
61910;DHT22;47865;52.086;5.410;2022-10-31T04:28:21;9.20;99.90
61910;DHT22;47865;52.086;5.410;2022-10-31T04:30:47;9.10;99.90
61910;DHT22;47865;52.086;5.410;2022-10-31T04:33:16;9.10;99.90
61910;DHT22;47865;52.086;5.410;2022-10-31T04:35:45;9.00;99.90
61910;DHT22;47865;52.086;5.410;2022-10-31T04:38:12;9.00;99.90
61910;DHT22;47865;52.086;5.410;2022-10-31T04:40:40;8.90;99.90
61910;DHT22;47865;52.086;5.410;2022-10-31T04:43:29;8.80;99.90
61910;DHT22;47865;52.086;5.410;2022-10-31T04:45:59;8.80;99.90
61910;DHT22;47865;52.086;5.410;2022-10-31T04:48:25;8.90;99.90
61910;DHT22;47865;52.086;5.410;2022-10-31T04:50:52;8.90;99.90
61910;DHT22;47865;52.086;5.410;2022-10-31T04:53:19;8.90;99.90
61910;DHT22;47865;52.086;5.410;2022-10-31T04:56:09;8.90;99.90
61910;DHT22;47865;52.086;5.410;2022-10-31T04:58:40;8.80;99.90
61910;DHT22;47865;52.086;5.410;2022-10-31T05:01:09;8.80;99.90
61910;DHT22;47865;52.086;5.410;2022-10-31T05:03:36;8.80;99.90
61910;DHT22;47865;52.086;5.410;2022-10-31T05:06:03;8.90;99.90
61910;DHT22;47865;52.086;5.410;2022-10-31T05:08:29;8.80;99.90
61910;DHT22;47865;52.086;5.410;2022-10-31T05:11:00;8.80;99.90
61910;DHT22;47865;52.086;5.410;2022-10-31T05:13:31;8.70;99.90
61910;DHT22;47865;52.086;5.410;2022-10-31T05:16:09;8.70;99.90
61910;DHT22;47865;52.086;5.410;2022-10-31T05:18:58;8.60;99.90
61910;DHT22;47865;52.086;5.410;2022-10-31T05:21:45;8.60;99.90
61910;DHT22;47865;52.086;5.410;2022-10-31T05:24:12;8.50;99.90
61910;DHT22;47865;52.086;5.410;2022-10-31T05:26:43;8.50;99.90
61910;DHT22;47865;52.086;5.410;2022-10-31T05:29:11;8.50;99.90
61910;DHT22;47865;52.086;5.410;2022-10-31T05:31:38;8.40;99.90
61910;DHT22;47865;52.086;5.410;2022-10-31T05:34:10;8.40;99.90
61910;DHT22;47865;52.086;5.410;2022-10-31T05:36:56;8.30;99.90
61910;DHT22;47865;52.086;5.410;2022-10-31T05:39:24;8.20;99.90
61910;DHT22;47865;52.086;5.410;2022-10-31T05:41:55;8.20;99.90
61910;DHT22;47865;52.086;5.410;2022-10-31T05:44:25;8.20;99.90
61910;DHT22;47865;52.086;5.410;2022-10-31T05:47:12;8.20;99.90
61910;DHT22;47865;52.086;5.410;2022-10-31T05:49:54;8.20;99.90
61910;DHT22;47865;52.086;5.410;2022-10-31T05:52:39;8.20;99.90
61910;DHT22;47865;52.086;5.410;2022-10-31T05:55:16;8.10;99.90
61910;DHT22;47865;52.086;5.410;2022-10-31T05:57:58;8.10;99.90
61910;DHT22;47865;52.086;5.410;2022-10-31T06:00:26;8.20;99.90
61910;DHT22;47865;52.086;5.410;2022-10-31T06:03:04;8.10;99.90
61910;DHT22;47865;52.086;5.410;2022-10-31T06:05:41;8.10;99.90
61910;DHT22;47865;52.086;5.410;2022-10-31T06:08:08;8.20;99.90
61910;DHT22;47865;52.086;5.410;2022-10-31T06:10:37;8.30;99.90
61910;DHT22;47865;52.086;5.410;2022-10-31T06:13:04;8.30;99.90
61910;DHT22;47865;52.086;5.410;2022-10-31T06:15:37;8.20;99.90
61910;DHT22;47865;52.086;5.410;2022-10-31T06:18:06;8.20;99.90
61910;DHT22;47865;52.086;5.410;2022-10-31T06:20:38;8.20;99.90
61910;DHT22;47865;52.086;5.410;2022-10-31T06:23:05;8.20;99.90
61910;DHT22;47865;52.086;5.410;2022-10-31T06:25:33;8.30;99.90
61910;DHT22;47865;52.086;5.410;2022-10-31T06:28:03;8.30;99.90
61910;DHT22;47865;52.086;5.410;2022-10-31T06:30:48;8.30;99.90
61910;DHT22;47865;52.086;5.410;2022-10-31T06:33:16;8.30;99.90
61910;DHT22;47865;52.086;5.410;2022-10-31T06:35:53;8.30;99.90
61910;DHT22;47865;52.086;5.410;2022-10-31T06:38:20;8.20;99.90
61910;DHT22;47865;52.086;5.410;2022-10-31T06:40:47;8.30;99.90
61910;DHT22;47865;52.086;5.410;2022-10-31T06:43:17;8.10;99.90
61910;DHT22;47865;52.086;5.410;2022-10-31T06:45:45;8.20;99.90
61910;DHT22;47865;52.086;5.410;2022-10-31T06:48:17;8.20;99.90
61910;DHT22;47865;52.086;5.410;2022-10-31T06:51:22;8.20;99.90
61910;DHT22;47865;52.086;5.410;2022-10-31T06:53:50;8.20;99.90
61910;DHT22;47865;52.086;5.410;2022-10-31T06:56:17;8.10;99.90
61910;DHT22;47865;52.086;5.410;2022-10-31T06:58:48;8.20;99.90
61910;DHT22;47865;52.086;5.410;2022-10-31T07:01:19;8.20;99.90
61910;DHT22;47865;52.086;5.410;2022-10-31T07:03:47;8.20;99.90
61910;DHT22;47865;52.086;5.410;2022-10-31T07:06:14;8.20;99.90
61910;DHT22;47865;52.086;5.410;2022-10-31T07:08:41;8.20;99.90
61910;DHT22;47865;52.086;5.410;2022-10-31T07:11:08;8.30;99.90
61910;DHT22;47865;52.086;5.410;2022-10-31T07:13:35;8.20;99.90
61910;DHT22;47865;52.086;5.410;2022-10-31T07:16:06;8.30;99.90
61910;DHT22;47865;52.086;5.410;2022-10-31T07:18:39;8.40;99.90
61910;DHT22;47865;52.086;5.410;2022-10-31T07:21:07;8.50;99.90
61910;DHT22;47865;52.086;5.410;2022-10-31T07:23:34;8.60;99.90
61910;DHT22;47865;52.086;5.410;2022-10-31T07:26:20;8.60;99.90
61910;DHT22;47865;52.086;5.410;2022-10-31T07:28:47;8.60;99.90
61910;DHT22;47865;52.086;5.410;2022-10-31T07:31:17;8.60;99.90
61910;DHT22;47865;52.086;5.410;2022-10-31T07:33:44;8.70;99.90
61910;DHT22;47865;52.086;5.410;2022-10-31T07:36:26;8.80;99.90
61910;DHT22;47865;52.086;5.410;2022-10-31T07:38:57;8.90;99.90
61910;DHT22;47865;52.086;5.410;2022-10-31T07:41:25;8.80;99.90
61910;DHT22;47865;52.086;5.410;2022-10-31T07:43:53;8.90;99.90
61910;DHT22;47865;52.086;5.410;2022-10-31T07:47:03;8.90;99.90
61910;DHT22;47865;52.086;5.410;2022-10-31T07:49:48;9.00;99.90
61910;DHT22;47865;52.086;5.410;2022-10-31T07:52:24;9.00;99.90
61910;DHT22;47865;52.086;5.410;2022-10-31T07:55:30;9.00;99.90
61910;DHT22;47865;52.086;5.410;2022-10-31T07:57:59;9.10;99.90
61910;DHT22;47865;52.086;5.410;2022-10-31T08:00:28;9.10;99.90
61910;DHT22;47865;52.086;5.410;2022-10-31T08:03:04;9.10;99.90
61910;DHT22;47865;52.086;5.410;2022-10-31T08:05:57;9.10;99.90
61910;DHT22;47865;52.086;5.410;2022-10-31T08:08:46;9.20;99.90
61910;DHT22;47865;52.086;5.410;2022-10-31T08:11:13;9.30;99.90
61910;DHT22;47865;52.086;5.410;2022-10-31T08:13:41;9.40;99.90
61910;DHT22;47865;52.086;5.410;2022-10-31T08:16:12;9.40;99.90
61910;DHT22;47865;52.086;5.410;2022-10-31T08:18:48;9.50;99.90
61910;DHT22;47865;52.086;5.410;2022-10-31T08:21:16;9.60;99.90
61910;DHT22;47865;52.086;5.410;2022-10-31T08:23:44;9.70;99.90
61910;DHT22;47865;52.086;5.410;2022-10-31T08:26:11;9.80;99.90
61910;DHT22;47865;52.086;5.410;2022-10-31T08:28:38;10.00;99.90
61910;DHT22;47865;52.086;5.410;2022-10-31T08:31:04;10.20;99.90
61910;DHT22;47865;52.086;5.410;2022-10-31T08:33:38;10.40;99.90
61910;DHT22;47865;52.086;5.410;2022-10-31T08:36:23;10.50;99.90
61910;DHT22;47865;52.086;5.410;2022-10-31T08:39:02;10.70;99.90
61910;DHT22;47865;52.086;5.410;2022-10-31T08:41:30;10.80;99.90
61910;DHT22;47865;52.086;5.410;2022-10-31T08:43:58;10.80;99.90
61910;DHT22;47865;52.086;5.410;2022-10-31T08:46:25;11.00;99.90
61910;DHT22;47865;52.086;5.410;2022-10-31T08:48:52;11.00;99.90
61910;DHT22;47865;52.086;5.410;2022-10-31T08:51:19;11.10;99.90
61910;DHT22;47865;52.086;5.410;2022-10-31T08:53:50;11.20;99.90
61910;DHT22;47865;52.086;5.410;2022-10-31T08:56:32;11.40;99.90
61910;DHT22;47865;52.086;5.410;2022-10-31T08:59:00;11.60;99.90
61910;DHT22;47865;52.086;5.410;2022-10-31T09:01:44;11.70;99.90
61910;DHT22;47865;52.086;5.410;2022-10-31T09:04:11;11.70;99.90
61910;DHT22;47865;52.086;5.410;2022-10-31T09:06:38;11.80;99.90
61910;DHT22;47865;52.086;5.410;2022-10-31T09:09:21;12.00;99.90
61910;DHT22;47865;52.086;5.410;2022-10-31T09:11:48;12.20;99.90
61910;DHT22;47865;52.086;5.410;2022-10-31T09:14:46;12.50;99.90
61910;DHT22;47865;52.086;5.410;2022-10-31T09:17:30;12.90;99.90
61910;DHT22;47865;52.086;5.410;2022-10-31T09:20:37;13.30;99.90
61910;DHT22;47865;52.086;5.410;2022-10-31T09:23:08;13.50;99.90
61910;DHT22;47865;52.086;5.410;2022-10-31T09:25:37;13.60;99.90
61910;DHT22;47865;52.086;5.410;2022-10-31T09:28:24;13.60;99.90
61910;DHT22;47865;52.086;5.410;2022-10-31T09:30:53;13.60;99.90
61910;DHT22;47865;52.086;5.410;2022-10-31T09:33:48;13.70;99.90
61910;DHT22;47865;52.086;5.410;2022-10-31T09:36:34;13.70;99.90
61910;DHT22;47865;52.086;5.410;2022-10-31T09:39:03;13.70;99.90
61910;DHT22;47865;52.086;5.410;2022-10-31T09:47:10;14.00;99.90
61910;DHT22;47865;52.086;5.410;2022-10-31T09:50:02;14.20;99.90
61910;DHT22;47865;52.086;5.410;2022-10-31T09:52:35;14.30;99.90
61910;DHT22;47865;52.086;5.410;2022-10-31T09:55:18;14.50;99.90
61910;DHT22;47865;52.086;5.410;2022-10-31T09:57:46;14.70;99.90
61910;DHT22;47865;52.086;5.410;2022-10-31T10:00:20;14.80;99.90
61910;DHT22;47865;52.086;5.410;2022-10-31T10:05:51;15.40;99.90
61910;DHT22;47865;52.086;5.410;2022-10-31T10:08:32;15.80;99.90
61910;DHT22;47865;52.086;5.410;2022-10-31T10:17:11;16.10;99.90
61910;DHT22;47865;52.086;5.410;2022-10-31T10:22:43;16.00;99.90
61910;DHT22;47865;52.086;5.410;2022-10-31T10:25:16;15.80;99.90
61910;DHT22;47865;52.086;5.410;2022-10-31T10:33:24;15.80;99.90
61910;DHT22;47865;52.086;5.410;2022-10-31T10:36:04;15.80;99.90
61910;DHT22;47865;52.086;5.410;2022-10-31T10:41:00;15.80;99.90
61910;DHT22;47865;52.086;5.410;2022-10-31T10:43:34;15.70;99.90
61910;DHT22;47865;52.086;5.410;2022-10-31T10:52:37;15.90;99.90
61910;DHT22;47865;52.086;5.410;2022-10-31T10:58:00;16.00;99.90
61910;DHT22;47865;52.086;5.410;2022-10-31T11:03:02;16.20;99.90
61910;DHT22;47865;52.086;5.410;2022-10-31T11:05:47;16.20;99.90
61910;DHT22;47865;52.086;5.410;2022-10-31T11:08:28;16.10;99.90
61910;DHT22;47865;52.086;5.410;2022-10-31T11:13:31;16.00;99.90
61910;DHT22;47865;52.086;5.410;2022-10-31T11:16:04;16.10;99.90
61910;DHT22;47865;52.086;5.410;2022-10-31T11:18:36;16.10;99.90
61910;DHT22;47865;52.086;5.410;2022-10-31T11:21:04;16.20;99.90
61910;DHT22;47865;52.086;5.410;2022-10-31T11:23:32;16.20;99.90
61910;DHT22;47865;52.086;5.410;2022-10-31T11:26:06;16.40;99.90
61910;DHT22;47865;52.086;5.410;2022-10-31T11:28:43;16.30;99.90
61910;DHT22;47865;52.086;5.410;2022-10-31T11:31:15;16.40;99.90
61910;DHT22;47865;52.086;5.410;2022-10-31T11:33:48;16.30;99.90
61910;DHT22;47865;52.086;5.410;2022-10-31T11:36:18;16.30;99.90
61910;DHT22;47865;52.086;5.410;2022-10-31T11:38:46;16.20;99.90
61910;DHT22;47865;52.086;5.410;2022-10-31T11:41:17;16.40;99.90
61910;DHT22;47865;52.086;5.410;2022-10-31T11:43:51;16.40;99.90
61910;DHT22;47865;52.086;5.410;2022-10-31T11:46:30;16.50;99.90
61910;DHT22;47865;52.086;5.410;2022-10-31T11:48:59;16.40;99.90
61910;DHT22;47865;52.086;5.410;2022-10-31T11:51:30;16.40;99.90
61910;DHT22;47865;52.086;5.410;2022-10-31T11:53:59;16.40;99.90
61910;DHT22;47865;52.086;5.410;2022-10-31T11:56:40;16.40;99.90
61910;DHT22;47865;52.086;5.410;2022-10-31T11:59:33;16.40;99.90
61910;DHT22;47865;52.086;5.410;2022-10-31T12:02:01;16.40;99.90
61910;DHT22;47865;52.086;5.410;2022-10-31T12:06:55;16.40;99.90
61910;DHT22;47865;52.086;5.410;2022-10-31T12:09:27;16.30;99.90
61910;DHT22;47865;52.086;5.410;2022-10-31T12:12:10;16.20;99.90
61910;DHT22;47865;52.086;5.410;2022-10-31T12:14:48;16.20;99.90
61910;DHT22;47865;52.086;5.410;2022-10-31T12:17:21;16.20;99.90
61910;DHT22;47865;52.086;5.410;2022-10-31T12:39:54;16.90;99.90
61910;DHT22;47865;52.086;5.410;2022-10-31T12:42:37;16.90;99.90
61910;DHT22;47865;52.086;5.410;2022-10-31T12:45:36;17.00;99.90
61910;DHT22;47865;52.086;5.410;2022-10-31T12:48:28;17.10;99.90
61910;DHT22;47865;52.086;5.410;2022-10-31T12:51:15;17.20;99.90
61910;DHT22;47865;52.086;5.410;2022-10-31T12:59:35;17.10;99.90
61910;DHT22;47865;52.086;5.410;2022-10-31T13:02:16;17.10;99.90
61910;DHT22;47865;52.086;5.410;2022-10-31T13:04:53;17.20;99.90
61910;DHT22;47865;52.086;5.410;2022-10-31T13:10:48;17.20;99.90
61910;DHT22;47865;52.086;5.410;2022-10-31T13:13:26;17.20;99.90
61910;DHT22;47865;52.086;5.410;2022-10-31T13:16:00;17.20;99.90
61910;DHT22;47865;52.086;5.410;2022-10-31T13:18:40;17.20;99.90
61910;DHT22;47865;52.086;5.410;2022-10-31T13:21:21;17.10;99.90
61910;DHT22;47865;52.086;5.410;2022-10-31T13:23:51;17.10;99.90
61910;DHT22;47865;52.086;5.410;2022-10-31T13:31:40;17.10;99.90
61910;DHT22;47865;52.086;5.410;2022-10-31T13:34:26;17.20;99.90
61910;DHT22;47865;52.086;5.410;2022-10-31T13:42:59;17.50;99.90
61910;DHT22;47865;52.086;5.410;2022-10-31T13:45:29;17.50;99.90
61910;DHT22;47865;52.086;5.410;2022-10-31T13:50:31;17.60;99.90
61910;DHT22;47865;52.086;5.410;2022-10-31T13:53:13;17.60;99.90
61910;DHT22;47865;52.086;5.410;2022-10-31T13:55:42;17.60;99.90
61910;DHT22;47865;52.086;5.410;2022-10-31T13:58:28;17.60;99.90
61910;DHT22;47865;52.086;5.410;2022-10-31T14:01:16;17.50;99.90
61910;DHT22;47865;52.086;5.410;2022-10-31T14:03:54;17.50;99.90
61910;DHT22;47865;52.086;5.410;2022-10-31T14:06:47;17.50;99.90
61910;DHT22;47865;52.086;5.410;2022-10-31T14:09:22;17.40;99.90
61910;DHT22;47865;52.086;5.410;2022-10-31T14:11:50;17.40;99.90
61910;DHT22;47865;52.086;5.410;2022-10-31T14:14:19;17.30;99.90
61910;DHT22;47865;52.086;5.410;2022-10-31T14:16:53;17.30;99.90
61910;DHT22;47865;52.086;5.410;2022-10-31T14:19:22;17.20;99.90
61910;DHT22;47865;52.086;5.410;2022-10-31T14:21:49;17.20;99.90
61910;DHT22;47865;52.086;5.410;2022-10-31T14:26:54;17.00;99.90
61910;DHT22;47865;52.086;5.410;2022-10-31T14:29:25;17.10;99.90
61910;DHT22;47865;52.086;5.410;2022-10-31T14:31:56;17.00;99.90
61910;DHT22;47865;52.086;5.410;2022-10-31T14:34:32;17.00;99.90
61910;DHT22;47865;52.086;5.410;2022-10-31T14:37:24;16.90;99.90
61910;DHT22;47865;52.086;5.410;2022-10-31T14:45:59;16.90;99.90
61910;DHT22;47865;52.086;5.410;2022-10-31T14:51:19;16.80;99.90
61910;DHT22;47865;52.086;5.410;2022-10-31T14:53:52;16.80;99.90
61910;DHT22;47865;52.086;5.410;2022-10-31T14:56:28;16.70;99.90
61910;DHT22;47865;52.086;5.410;2022-10-31T14:58:57;16.80;99.90
61910;DHT22;47865;52.086;5.410;2022-10-31T15:01:32;16.70;99.90
61910;DHT22;47865;52.086;5.410;2022-10-31T15:04:27;16.70;99.90
61910;DHT22;47865;52.086;5.410;2022-10-31T15:07:14;16.70;99.90
61910;DHT22;47865;52.086;5.410;2022-10-31T15:09:56;16.80;99.90
61910;DHT22;47865;52.086;5.410;2022-10-31T15:12:25;16.70;99.90
61910;DHT22;47865;52.086;5.410;2022-10-31T15:14:53;16.70;99.90
61910;DHT22;47865;52.086;5.410;2022-10-31T15:17:20;16.60;99.90
61910;DHT22;47865;52.086;5.410;2022-10-31T15:19:47;16.60;99.90
61910;DHT22;47865;52.086;5.410;2022-10-31T15:22:17;16.60;99.90
61910;DHT22;47865;52.086;5.410;2022-10-31T15:24:45;16.50;99.90
61910;DHT22;47865;52.086;5.410;2022-10-31T15:27:14;16.50;99.90
61910;DHT22;47865;52.086;5.410;2022-10-31T15:29:50;16.50;99.90
61910;DHT22;47865;52.086;5.410;2022-10-31T15:34:50;16.40;99.90
61910;DHT22;47865;52.086;5.410;2022-10-31T15:37:19;16.40;99.90
61910;DHT22;47865;52.086;5.410;2022-10-31T15:39:48;16.40;99.90
61910;DHT22;47865;52.086;5.410;2022-10-31T15:42:30;16.30;99.90
61910;DHT22;47865;52.086;5.410;2022-10-31T15:47:30;16.30;99.90
61910;DHT22;47865;52.086;5.410;2022-10-31T15:49:59;16.30;99.90
61910;DHT22;47865;52.086;5.410;2022-10-31T15:55:01;16.20;99.90
61910;DHT22;47865;52.086;5.410;2022-10-31T15:57:30;16.10;99.90
61910;DHT22;47865;52.086;5.410;2022-10-31T15:59:57;16.10;99.90
61910;DHT22;47865;52.086;5.410;2022-10-31T16:02:26;16.10;99.90
61910;DHT22;47865;52.086;5.410;2022-10-31T16:05:14;16.10;99.90
61910;DHT22;47865;52.086;5.410;2022-10-31T16:07:48;16.10;99.90
61910;DHT22;47865;52.086;5.410;2022-10-31T16:10:24;16.10;99.90
61910;DHT22;47865;52.086;5.410;2022-10-31T16:12:52;16.00;99.90
61910;DHT22;47865;52.086;5.410;2022-10-31T16:15:20;16.00;99.90
61910;DHT22;47865;52.086;5.410;2022-10-31T16:17:50;16.00;99.90
61910;DHT22;47865;52.086;5.410;2022-10-31T16:20:23;15.90;99.90
61910;DHT22;47865;52.086;5.410;2022-10-31T16:22:52;15.90;99.90
61910;DHT22;47865;52.086;5.410;2022-10-31T16:25:26;15.80;99.90
61910;DHT22;47865;52.086;5.410;2022-10-31T16:27:58;15.70;99.90
61910;DHT22;47865;52.086;5.410;2022-10-31T16:30:43;15.60;99.90
61910;DHT22;47865;52.086;5.410;2022-10-31T16:35:52;15.40;99.90
61910;DHT22;47865;52.086;5.410;2022-10-31T16:38:35;15.20;99.90
61910;DHT22;47865;52.086;5.410;2022-10-31T16:41:02;15.10;99.90
61910;DHT22;47865;52.086;5.410;2022-10-31T16:43:28;15.10;99.90
61910;DHT22;47865;52.086;5.410;2022-10-31T16:45:55;15.00;99.90
61910;DHT22;47865;52.086;5.410;2022-10-31T16:48:22;14.90;99.90
61910;DHT22;47865;52.086;5.410;2022-10-31T16:50:50;14.80;99.90
61910;DHT22;47865;52.086;5.410;2022-10-31T16:53:19;14.80;99.90
61910;DHT22;47865;52.086;5.410;2022-10-31T16:55:46;14.80;99.90
61910;DHT22;47865;52.086;5.410;2022-10-31T16:58:24;14.70;99.90
61910;DHT22;47865;52.086;5.410;2022-10-31T17:00:52;14.70;99.90
61910;DHT22;47865;52.086;5.410;2022-10-31T17:03:19;14.70;99.90
61910;DHT22;47865;52.086;5.410;2022-10-31T17:05:46;14.60;99.90
61910;DHT22;47865;52.086;5.410;2022-10-31T17:08:13;14.70;99.90
61910;DHT22;47865;52.086;5.410;2022-10-31T17:10:40;14.80;99.90
61910;DHT22;47865;52.086;5.410;2022-10-31T17:13:16;14.70;99.90
61910;DHT22;47865;52.086;5.410;2022-10-31T17:15:47;14.70;99.90
61910;DHT22;47865;52.086;5.410;2022-10-31T17:18:15;14.70;99.90
61910;DHT22;47865;52.086;5.410;2022-10-31T17:20:43;14.80;99.90
61910;DHT22;47865;52.086;5.410;2022-10-31T17:23:12;14.70;99.90
61910;DHT22;47865;52.086;5.410;2022-10-31T17:25:39;14.60;99.90
61910;DHT22;47865;52.086;5.410;2022-10-31T17:28:12;14.60;99.90
61910;DHT22;47865;52.086;5.410;2022-10-31T17:30:42;14.60;99.90
61910;DHT22;47865;52.086;5.410;2022-10-31T17:33:11;14.50;99.90
61910;DHT22;47865;52.086;5.410;2022-10-31T17:35:38;14.40;99.90
61910;DHT22;47865;52.086;5.410;2022-10-31T17:38:04;14.40;99.90
61910;DHT22;47865;52.086;5.410;2022-10-31T17:40:31;14.30;99.90
61910;DHT22;47865;52.086;5.410;2022-10-31T17:42:58;14.30;99.90
61910;DHT22;47865;52.086;5.410;2022-10-31T17:45:26;14.40;99.90
61910;DHT22;47865;52.086;5.410;2022-10-31T17:47:53;14.20;99.90
61910;DHT22;47865;52.086;5.410;2022-10-31T17:50:22;14.30;99.90
61910;DHT22;47865;52.086;5.410;2022-10-31T17:52:49;14.20;99.90
61910;DHT22;47865;52.086;5.410;2022-10-31T17:55:16;14.20;99.90
61910;DHT22;47865;52.086;5.410;2022-10-31T17:57:43;14.10;99.90
61910;DHT22;47865;52.086;5.410;2022-10-31T18:00:15;14.00;99.90
61910;DHT22;47865;52.086;5.410;2022-10-31T18:02:42;14.00;99.90
61910;DHT22;47865;52.086;5.410;2022-10-31T18:05:09;14.00;99.90
61910;DHT22;47865;52.086;5.410;2022-10-31T18:07:36;13.90;99.90
61910;DHT22;47865;52.086;5.410;2022-10-31T18:10:04;14.00;99.90
61910;DHT22;47865;52.086;5.410;2022-10-31T18:12:31;13.90;99.90
61910;DHT22;47865;52.086;5.410;2022-10-31T18:14:57;13.90;99.90
61910;DHT22;47865;52.086;5.410;2022-10-31T18:17:24;13.90;99.90
61910;DHT22;47865;52.086;5.410;2022-10-31T18:19:51;13.80;99.90
61910;DHT22;47865;52.086;5.410;2022-10-31T18:22:18;13.90;99.90
61910;DHT22;47865;52.086;5.410;2022-10-31T18:24:44;13.90;99.90